createdAt,value
2018-03-28T00:00:41.681Z,24.40
2018-03-28T00:03:09.135Z,27.30
2018-03-28T00:05:36.691Z,26.77
2018-03-28T00:08:04.160Z,26.97
2018-03-28T00:10:31.610Z,29.60
2018-03-28T00:12:59.063Z,25.17
2018-03-28T00:15:26.516Z,27.87
2018-03-28T00:17:53.971Z,28.63
2018-03-28T00:20:21.456Z,27.40
2018-03-28T00:22:48.899Z,23.33
2018-03-28T00:25:16.336Z,24.90
2018-03-28T00:27:43.822Z,25.27
2018-03-28T00:30:11.317Z,25.43
2018-03-28T00:32:38.787Z,24.20
2018-03-28T00:35:07.015Z,23.10
2018-03-28T00:37:34.479Z,24.10
2018-03-28T00:40:01.921Z,24.17
2018-03-28T00:42:29.408Z,23.13
2018-03-28T00:44:58.464Z,25.63
2018-03-28T00:47:25.934Z,23.17
2018-03-28T00:49:53.391Z,23.50
2018-03-28T00:52:20.850Z,24.33
2018-03-28T00:54:48.321Z,26.67
2018-03-28T00:57:15.771Z,26.20
2018-03-28T00:59:43.220Z,23.13
2018-03-28T01:02:10.676Z,27.27
2018-03-28T01:04:38.117Z,25.83
2018-03-28T01:07:05.583Z,22.63
2018-03-28T01:09:33.621Z,21.50
2018-03-28T01:12:01.957Z,25.03
2018-03-28T01:14:29.429Z,20.17
2018-03-28T01:16:56.901Z,20.40
2018-03-28T01:19:25.149Z,22.70
2018-03-28T01:21:52.594Z,21.43
2018-03-28T01:24:20.050Z,21.57
2018-03-28T01:26:47.497Z,24.10
2018-03-28T01:29:14.953Z,20.37
2018-03-28T01:31:42.443Z,23.50
2018-03-28T01:34:10.688Z,25.23
2018-03-28T01:36:38.134Z,21.57
2018-03-28T01:39:05.615Z,24.20
2018-03-28T01:41:33.083Z,22.00
2018-03-28T01:44:00.557Z,20.80
2018-03-28T01:46:28.776Z,21.33
2018-03-28T01:48:56.254Z,22.00
2018-03-28T01:51:23.753Z,22.03
2018-03-28T01:53:51.953Z,22.80
2018-03-28T01:56:19.440Z,24.00
2018-03-28T01:58:46.913Z,23.57
2018-03-28T02:01:14.378Z,22.20
2018-03-28T02:03:41.836Z,24.57
2018-03-28T02:06:09.286Z,22.63
2018-03-28T02:08:36.846Z,25.53
2018-03-28T02:11:04.291Z,23.27
2018-03-28T02:13:31.740Z,23.10
2018-03-28T02:15:59.189Z,22.53
2018-03-28T02:18:26.666Z,24.50
2018-03-28T02:20:54.118Z,23.63
2018-03-28T02:23:21.592Z,21.73
2018-03-28T02:25:49.830Z,25.50
2018-03-28T02:28:17.313Z,22.60
2018-03-28T02:30:44.768Z,23.27
2018-03-28T02:33:12.229Z,19.30
2018-03-28T02:35:39.690Z,19.77
2018-03-28T02:38:08.552Z,20.60
2018-03-28T02:40:36.991Z,19.43
2018-03-28T02:43:04.460Z,17.47
2018-03-28T02:45:31.930Z,19.27
2018-03-28T02:47:59.407Z,19.40
2018-03-28T02:50:26.930Z,17.07
2018-03-28T02:52:54.415Z,17.33
2018-03-28T02:55:22.859Z,17.90
2018-03-28T02:57:50.342Z,18.33
2018-03-28T03:00:17.814Z,19.27
2018-03-28T03:02:45.281Z,17.00
2018-03-28T03:05:12.736Z,18.13
2018-03-28T03:07:40.207Z,18.37
2018-03-28T03:10:07.677Z,17.00
2018-03-28T03:12:35.888Z,17.03
2018-03-28T03:15:03.346Z,15.40
2018-03-28T03:17:30.827Z,15.73
2018-03-28T03:19:58.313Z,17.90
2018-03-28T03:22:26.559Z,19.17
2018-03-28T03:24:54.001Z,16.00
2018-03-28T03:27:21.457Z,13.90
2018-03-28T03:29:48.917Z,15.80
2018-03-28T03:32:16.361Z,13.30
2018-03-28T03:34:43.819Z,16.30
2018-03-28T03:37:11.261Z,14.27
2018-03-28T03:39:38.741Z,13.90
2018-03-28T03:42:06.189Z,14.33
2018-03-28T03:44:33.639Z,12.50
2018-03-28T03:47:01.093Z,14.43
2018-03-28T03:49:28.569Z,18.33
2018-03-28T03:51:56.047Z,19.40
2018-03-28T03:54:23.500Z,16.97
2018-03-28T03:56:50.955Z,13.20
2018-03-28T03:59:18.441Z,15.17
2018-03-28T04:01:46.676Z,16.23
2018-03-28T04:04:14.148Z,16.97
2018-03-28T04:06:41.612Z,16.70
2018-03-28T04:09:09.230Z,16.23
2018-03-28T04:11:36.672Z,15.47
2018-03-28T04:14:04.173Z,15.60
2018-03-28T04:16:31.653Z,20.03
2018-03-28T04:18:59.151Z,31.50
2018-03-28T04:21:26.598Z,20.67
2018-03-28T04:23:54.052Z,16.53
2018-03-28T04:26:21.509Z,17.77
2018-03-28T04:28:48.945Z,17.10
2018-03-28T04:31:17.178Z,16.73
2018-03-28T04:33:44.657Z,32.60
2018-03-28T04:36:12.097Z,18.17
2018-03-28T04:38:39.590Z,18.93
2018-03-28T04:41:07.829Z,38.87
2018-03-28T04:43:35.266Z,20.17
2018-03-28T04:46:02.744Z,19.43
2018-03-28T04:48:30.193Z,18.23
2018-03-28T04:50:57.681Z,19.50
2018-03-28T04:53:25.111Z,17.60
2018-03-28T04:55:52.604Z,46.47
2018-03-28T04:58:20.030Z,24.23
2018-03-28T05:00:47.493Z,20.20
2018-03-28T05:03:14.947Z,22.57
2018-03-28T05:05:42.417Z,19.77
2018-03-28T05:08:09.887Z,19.43
2018-03-28T05:10:38.093Z,22.13
2018-03-28T05:13:05.568Z,21.23
2018-03-28T05:15:33.037Z,22.57
2018-03-28T05:18:00.494Z,27.80
2018-03-28T05:20:27.982Z,23.60
2018-03-28T05:22:55.424Z,21.03
2018-03-28T05:25:22.884Z,18.30
2018-03-28T05:27:50.361Z,19.37
2018-03-28T05:30:18.597Z,19.53
2018-03-28T05:32:46.047Z,18.53
2018-03-28T05:35:13.507Z,19.20
2018-03-28T05:37:41.038Z,18.43
2018-03-28T05:40:08.459Z,18.07
2018-03-28T05:42:36.718Z,19.53
2018-03-28T05:45:04.168Z,20.07
2018-03-28T05:47:31.652Z,17.70
2018-03-28T05:49:59.908Z,21.87
2018-03-28T05:52:27.379Z,18.77
2018-03-28T05:54:56.181Z,18.40
2018-03-28T05:57:24.400Z,17.93
2018-03-28T05:59:51.845Z,16.10
2018-03-28T06:02:19.304Z,25.30
2018-03-28T06:04:46.766Z,17.67
2018-03-28T06:07:14.224Z,16.27
2018-03-28T06:09:41.713Z,17.47
2018-03-28T06:12:09.194Z,15.50
2018-03-28T06:14:37.430Z,13.93
2018-03-28T06:17:04.890Z,16.03
2018-03-28T06:19:32.356Z,17.63
2018-03-28T06:21:59.821Z,19.70
2018-03-28T06:24:27.268Z,17.57
2018-03-28T06:26:54.734Z,18.43
2018-03-28T06:29:22.207Z,18.43
2018-03-28T06:31:50.441Z,18.47
2018-03-28T06:34:17.910Z,24.50
2018-03-28T06:36:45.393Z,22.30
2018-03-28T06:39:13.626Z,27.17
2018-03-28T06:41:41.089Z,30.77
2018-03-28T06:44:08.702Z,29.23
2018-03-28T06:46:36.144Z,31.90
2018-03-28T06:49:04.377Z,39.60
2018-03-28T06:51:32.100Z,31.67
2018-03-28T06:53:59.552Z,32.53
2018-03-28T06:56:26.995Z,36.93
2018-03-28T06:58:55.236Z,40.33
2018-03-28T07:01:22.716Z,40.03
2018-03-28T07:03:50.183Z,42.57
2018-03-28T07:06:18.406Z,42.60
2018-03-28T07:08:45.873Z,41.70
2018-03-28T07:11:13.328Z,44.83
2018-03-28T07:13:40.803Z,49.63
2018-03-28T07:16:08.264Z,44.60
2018-03-28T07:18:35.732Z,43.03
2018-03-28T07:21:03.962Z,47.20
2018-03-28T07:23:31.418Z,41.67
2018-03-28T07:25:58.885Z,40.17
2018-03-28T07:28:26.369Z,44.50
2018-03-28T07:30:53.842Z,38.73
2018-03-28T07:33:22.089Z,37.83
2018-03-28T07:35:49.543Z,41.70
2018-03-28T07:38:17.026Z,41.77
2018-03-28T07:40:45.263Z,41.73
2018-03-28T07:43:12.733Z,53.60
2018-03-28T07:45:40.213Z,33.67
2018-03-28T07:48:08.429Z,39.67
2018-03-28T07:50:35.894Z,31.93
2018-03-28T07:53:03.360Z,28.93
2018-03-28T07:58:04.809Z,43.47
2018-03-28T08:00:32.275Z,73.53
2018-03-28T08:02:59.721Z,35.37
2018-03-28T08:05:27.178Z,31.57
2018-03-28T08:07:54.661Z,33.63
2018-03-28T08:10:22.131Z,34.50
2018-03-28T08:12:49.598Z,32.17
2018-03-28T08:15:17.066Z,30.23
2018-03-28T08:17:45.312Z,32.03
2018-03-28T08:20:12.765Z,31.00
2018-03-28T08:22:40.241Z,28.87
2018-03-28T08:25:07.727Z,28.97
2018-03-28T08:27:35.184Z,28.10
2018-03-28T08:30:03.652Z,27.13
2018-03-28T08:32:31.904Z,22.90
2018-03-28T08:34:59.359Z,26.63
2018-03-28T08:37:26.850Z,20.03
2018-03-28T08:39:55.076Z,21.97
2018-03-28T08:42:22.532Z,17.77
2018-03-28T08:44:49.990Z,19.17
2018-03-28T08:47:17.448Z,18.93
2018-03-28T08:49:44.922Z,18.93
2018-03-28T08:52:13.315Z,17.57
2018-03-28T08:54:40.778Z,20.13
2018-03-28T08:57:08.988Z,19.80
2018-03-28T08:59:36.464Z,49.70
2018-03-28T09:02:04.686Z,24.63
2018-03-28T09:04:32.916Z,20.77
2018-03-28T09:07:00.370Z,24.77
2018-03-28T09:09:27.860Z,23.30
2018-03-28T09:11:55.305Z,17.57
2018-03-28T09:14:22.783Z,21.47
2018-03-28T09:16:51.035Z,20.90
2018-03-28T09:19:18.508Z,17.70
2018-03-28T09:21:46.938Z,20.03
2018-03-28T09:24:14.414Z,24.37
2018-03-28T09:26:41.902Z,22.20
2018-03-28T09:29:10.149Z,18.80
2018-03-28T09:31:37.639Z,17.37
2018-03-28T09:34:05.106Z,19.73
2018-03-28T09:36:32.584Z,16.77
2018-03-28T09:39:00.032Z,18.27
2018-03-28T09:41:27.520Z,15.37
2018-03-28T09:43:54.968Z,18.70
2018-03-28T09:46:22.459Z,15.17
2018-03-28T09:48:49.952Z,14.97
2018-03-28T09:51:17.444Z,17.23
2018-03-28T09:53:44.962Z,19.50
2018-03-28T09:56:12.396Z,16.40
2018-03-28T09:58:39.882Z,16.70
2018-03-28T10:01:08.255Z,16.20
2018-03-28T10:03:42.189Z,13.17
2018-03-28T10:06:09.668Z,16.77
2018-03-28T10:08:37.152Z,24.07
2018-03-28T10:11:04.623Z,15.00
2018-03-28T10:13:32.881Z,12.40
2018-03-28T10:16:00.347Z,15.87
2018-03-28T10:18:27.820Z,12.40
2018-03-28T10:20:56.046Z,12.00
2018-03-28T10:23:23.502Z,12.40
2018-03-28T10:25:50.981Z,11.97
2018-03-28T10:28:18.464Z,11.10
2018-03-28T10:30:46.733Z,14.73
2018-03-28T10:33:14.969Z,11.77
2018-03-28T10:35:42.422Z,11.33
2018-03-28T10:38:09.885Z,9.80
2018-03-28T10:40:37.358Z,11.47
2018-03-28T10:43:04.840Z,11.23
2018-03-28T10:45:33.072Z,10.17
2018-03-28T10:48:00.556Z,9.97
2018-03-28T10:50:28.002Z,8.37
2018-03-28T10:52:55.461Z,9.00
2018-03-28T10:55:22.955Z,8.33
2018-03-28T10:57:50.414Z,12.10
2018-03-28T11:00:17.872Z,8.43
2018-03-28T11:02:45.343Z,6.63
2018-03-28T11:05:12.818Z,7.03
2018-03-28T11:07:40.257Z,6.03
2018-03-28T11:10:07.713Z,8.67
2018-03-28T11:12:35.173Z,7.00
2018-03-28T11:15:02.639Z,7.13
2018-03-28T11:17:30.182Z,7.73
2018-03-28T11:19:57.616Z,7.87
2018-03-28T11:22:25.074Z,6.77
2018-03-28T11:24:52.519Z,6.90
2018-03-28T11:27:20.753Z,6.13
2018-03-28T11:29:48.221Z,5.83
2018-03-28T11:32:15.693Z,7.87
2018-03-28T11:34:43.154Z,8.37
2018-03-28T11:37:10.600Z,6.57
2018-03-28T11:39:38.068Z,8.10
2018-03-28T11:42:05.515Z,8.13
2018-03-28T11:44:32.989Z,8.70
2018-03-28T11:47:00.478Z,8.93
2018-03-28T11:49:27.919Z,10.17
2018-03-28T11:51:55.372Z,9.10
2018-03-28T11:54:23.607Z,6.83
2018-03-28T11:56:51.080Z,7.83
2018-03-28T11:59:19.208Z,8.73
2018-03-28T12:01:46.710Z,7.37
2018-03-28T12:04:14.160Z,11.27
2018-03-28T12:06:41.661Z,8.40
2018-03-28T12:09:09.128Z,9.73
2018-03-28T12:11:36.577Z,8.20
2018-03-28T12:14:04.047Z,7.27
2018-03-28T12:16:31.515Z,8.73
2018-03-28T12:18:58.968Z,9.73
2018-03-28T12:21:26.440Z,7.20
2018-03-28T12:23:53.921Z,8.10
2018-03-28T12:26:21.594Z,8.90
2018-03-28T12:28:49.808Z,9.60
2018-03-28T12:31:17.262Z,14.37
2018-03-28T12:33:44.752Z,10.40
2018-03-28T12:36:12.969Z,10.33
2018-03-28T12:38:40.470Z,10.40
2018-03-28T12:41:07.941Z,12.77
2018-03-28T12:43:35.441Z,11.23
2018-03-28T12:46:03.657Z,12.33
2018-03-28T12:48:31.945Z,11.17
2018-03-28T12:50:59.414Z,12.87
2018-03-28T12:53:26.901Z,16.10
2018-03-28T12:55:55.117Z,10.70
2018-03-28T12:58:22.574Z,14.43
2018-03-28T13:00:50.077Z,12.27
2018-03-28T13:03:17.557Z,17.47
2018-03-28T13:05:45.771Z,14.63
2018-03-28T13:08:13.277Z,15.70
2018-03-28T13:10:41.512Z,10.07
2018-03-28T13:13:08.980Z,10.07
2018-03-28T13:15:36.441Z,16.40
2018-03-28T13:18:03.933Z,16.07
2018-03-28T13:20:32.148Z,14.90
2018-03-28T13:22:59.613Z,16.30
2018-03-28T13:25:27.075Z,12.80
2018-03-28T13:27:54.548Z,15.90
2018-03-28T13:30:22.025Z,13.27
2018-03-28T13:32:50.242Z,12.03
2018-03-28T13:35:17.708Z,15.80
2018-03-28T13:37:45.170Z,13.13
2018-03-28T13:40:12.632Z,13.73
2018-03-28T13:42:40.107Z,13.63
2018-03-28T13:45:07.592Z,13.67
2018-03-28T13:47:35.068Z,17.37
2018-03-28T13:50:03.255Z,20.17
2018-03-28T13:52:30.734Z,24.60
2018-03-28T13:54:58.178Z,19.23
2018-03-28T13:57:25.665Z,22.63
2018-03-28T13:59:53.142Z,16.50
2018-03-28T14:02:21.386Z,20.43
2018-03-28T14:04:48.857Z,14.23
2018-03-28T14:07:16.332Z,20.97
2018-03-28T14:09:44.586Z,16.13
2018-03-28T14:12:12.103Z,16.03
2018-03-28T14:14:39.573Z,18.93
2018-03-28T14:17:07.032Z,20.57
2018-03-28T14:19:34.520Z,20.63
2018-03-28T14:22:02.013Z,23.43
2018-03-28T14:24:36.261Z,20.77
2018-03-28T14:27:04.500Z,20.87
2018-03-28T14:29:32.012Z,18.10
2018-03-28T14:31:59.501Z,20.60
2018-03-28T14:34:27.786Z,17.43
2018-03-28T14:36:55.244Z,22.37
2018-03-28T14:39:22.692Z,13.33
2018-03-28T14:41:50.938Z,10.57
2018-03-28T14:44:19.040Z,12.33
2018-03-28T14:46:46.521Z,12.17
2018-03-28T14:49:14.063Z,17.37
2018-03-28T14:51:42.385Z,11.77
2018-03-28T14:54:09.919Z,11.03
2018-03-28T14:56:37.415Z,14.50
2018-03-28T14:59:04.915Z,12.60
2018-03-28T15:01:32.424Z,11.27
2018-03-28T15:04:00.390Z,16.93
2018-03-28T15:06:27.862Z,12.53
2018-03-28T15:08:55.365Z,9.27
2018-03-28T15:11:23.623Z,11.37
2018-03-28T15:13:51.847Z,17.50
2018-03-28T15:16:19.360Z,12.33
2018-03-28T15:18:46.885Z,9.87
2018-03-28T15:21:14.382Z,12.93
2018-03-28T15:23:41.885Z,11.17
2018-03-28T15:26:09.399Z,9.20
2018-03-28T15:28:36.874Z,9.13
2018-03-28T15:31:04.366Z,11.90
2018-03-28T15:33:31.854Z,8.80
2018-03-28T15:35:59.355Z,9.07
2018-03-28T15:38:26.846Z,9.93
2018-03-28T15:40:54.334Z,11.17
2018-03-28T15:43:22.617Z,7.70
2018-03-28T15:45:50.114Z,7.90
2018-03-28T15:48:18.372Z,8.03
2018-03-28T15:50:45.866Z,8.93
2018-03-28T15:53:14.247Z,9.30
2018-03-28T15:55:41.763Z,9.47
2018-03-28T15:58:09.313Z,9.87
2018-03-28T16:00:36.844Z,13.03
2018-03-28T16:03:05.116Z,6.43
2018-03-28T16:05:33.385Z,12.93
2018-03-28T16:08:01.676Z,11.03
2018-03-28T16:10:29.148Z,9.27
2018-03-28T16:12:56.707Z,8.23
2018-03-28T16:15:24.428Z,9.37
2018-03-28T16:17:51.944Z,5.50
2018-03-28T16:20:19.455Z,11.37
2018-03-28T16:22:48.238Z,8.20
2018-03-28T16:25:16.513Z,6.37
2018-03-28T16:27:43.992Z,8.40
2018-03-28T16:30:12.271Z,7.30
2018-03-28T16:32:40.670Z,6.33
2018-03-28T16:35:08.998Z,7.37
2018-03-28T16:37:36.524Z,8.03
2018-03-28T16:40:04.826Z,9.47
2018-03-28T16:42:32.323Z,13.07
2018-03-28T16:44:59.841Z,7.60
2018-03-28T16:47:28.127Z,7.07
2018-03-28T16:49:56.493Z,8.23
2018-03-28T16:52:23.968Z,5.93
2018-03-28T16:54:52.253Z,9.17
2018-03-28T16:57:20.515Z,6.47
2018-03-28T16:59:48.063Z,6.13
2018-03-28T17:02:15.570Z,7.97
2018-03-28T17:04:44.235Z,9.60
2018-03-28T17:07:11.843Z,7.70
2018-03-28T17:09:39.351Z,11.47
2018-03-28T17:12:08.222Z,8.17
2018-03-28T17:14:35.783Z,9.00
2018-03-28T17:17:04.093Z,8.80
2018-03-28T17:19:32.518Z,8.70
2018-03-28T17:22:00.014Z,5.20
2018-03-28T17:24:28.286Z,6.00
2018-03-28T17:26:56.551Z,5.47
2018-03-28T17:29:25.356Z,5.60
2018-03-28T17:31:53.634Z,7.17
2018-03-28T17:34:23.559Z,7.63
2018-03-28T17:36:51.079Z,6.53
2018-03-28T17:39:19.609Z,5.03
2018-03-28T17:41:48.384Z,5.27
2018-03-28T17:44:15.906Z,6.40
2018-03-28T17:46:43.410Z,5.07
2018-03-28T17:49:11.614Z,6.20
2018-03-28T17:51:39.758Z,5.00
2018-03-28T17:54:08.346Z,6.40
2018-03-28T17:56:35.890Z,7.93
2018-03-28T17:59:04.923Z,5.63
2018-03-28T18:01:32.530Z,9.87
2018-03-28T18:04:00.868Z,9.00
2018-03-28T18:06:29.107Z,8.33
2018-03-28T18:08:56.607Z,5.10
2018-03-28T18:11:24.906Z,10.77
2018-03-28T18:13:54.344Z,8.97
2018-03-28T18:16:22.230Z,6.33
2018-03-28T18:18:49.754Z,7.37
2018-03-28T18:21:17.910Z,7.37
2018-03-28T18:23:45.554Z,15.37
2018-03-28T18:26:13.037Z,2.67
2018-03-28T18:28:42.194Z,4.47
2018-03-28T18:31:10.849Z,4.33
2018-03-28T18:33:38.512Z,3.63
2018-03-28T18:36:06.769Z,3.73
2018-03-28T18:38:35.474Z,4.27
2018-03-28T18:41:03.058Z,4.77
2018-03-28T18:43:30.812Z,4.93
2018-03-28T18:46:01.455Z,4.70
2018-03-28T18:48:33.991Z,5.27
2018-03-28T18:51:02.221Z,5.17
2018-03-28T18:53:32.036Z,5.00
2018-03-28T18:55:59.551Z,5.13
2018-03-28T18:58:28.131Z,5.80
2018-03-28T19:00:56.387Z,6.13
2018-03-28T19:03:24.856Z,5.63
2018-03-28T19:05:54.453Z,7.07
2018-03-28T19:08:22.020Z,7.10
2018-03-28T19:10:49.595Z,7.20
2018-03-28T19:13:17.163Z,7.97
2018-03-28T19:15:45.451Z,13.40
2018-03-28T19:18:13.264Z,6.33
2018-03-28T19:20:45.431Z,7.37
2018-03-28T19:23:14.668Z,5.83
2018-03-28T19:25:45.299Z,5.50
2018-03-28T19:28:14.979Z,8.27
2018-03-28T19:30:43.946Z,8.10
2018-03-28T19:33:12.323Z,8.97
2018-03-28T19:35:40.075Z,9.23
2018-03-28T19:38:09.178Z,7.87
2018-03-28T19:40:38.645Z,11.00
2018-03-28T19:43:08.333Z,11.83
2018-03-28T19:45:39.016Z,12.07
2018-03-28T19:48:07.819Z,15.27
2018-03-28T19:50:35.652Z,11.43
2018-03-28T19:53:03.921Z,10.97
2018-03-28T19:55:31.684Z,8.77
2018-03-28T19:58:00.194Z,8.87
2018-03-28T20:00:28.718Z,13.60
2018-03-28T20:02:57.977Z,19.57
2018-03-28T20:05:25.555Z,12.70
2018-03-28T20:07:57.881Z,11.90
2018-03-28T20:10:44.446Z,12.67
2018-03-28T20:13:12.240Z,12.43
2018-03-28T20:15:42.284Z,11.27
2018-03-28T20:18:11.916Z,14.80
2018-03-28T20:20:40.194Z,11.47
2018-03-28T20:23:08.850Z,12.37
2018-03-28T20:25:36.981Z,10.57
2018-03-28T20:28:04.840Z,16.07
2018-03-28T20:30:32.528Z,12.00
2018-03-28T20:33:00.897Z,11.40
2018-03-28T20:35:28.904Z,12.00
2018-03-28T20:37:56.434Z,14.07
2018-03-28T20:40:23.990Z,14.23
2018-03-28T20:42:51.616Z,12.37
2018-03-28T20:45:22.012Z,12.10
2018-03-28T20:47:50.388Z,13.47
2018-03-28T20:50:17.888Z,13.97
2018-03-28T20:52:47.613Z,13.90
2018-03-28T20:55:16.487Z,14.10
2018-03-28T20:57:49.937Z,14.20
2018-03-28T21:00:17.549Z,13.63
2018-03-28T21:02:46.206Z,12.40
2018-03-28T21:05:14.981Z,14.20
2018-03-28T21:07:45.152Z,15.37
2018-03-28T21:10:13.711Z,9.53
2018-03-28T21:12:43.140Z,9.70
2018-03-28T21:15:12.544Z,9.43
2018-03-28T21:17:40.174Z,9.60
2018-03-28T21:20:08.474Z,10.30
2018-03-28T21:22:36.732Z,11.60
2018-03-28T21:25:05.701Z,9.43
2018-03-28T21:27:33.979Z,10.07
2018-03-28T21:30:01.546Z,8.70
2018-03-28T21:32:32.075Z,8.97
2018-03-28T21:35:03.867Z,9.17
2018-03-28T21:37:31.427Z,9.50
2018-03-28T21:39:59.682Z,9.53
2018-03-28T21:42:27.965Z,9.73
2018-03-28T21:44:55.487Z,11.27
2018-03-28T21:47:23.571Z,10.70
2018-03-28T21:49:51.916Z,10.47
2018-03-28T21:52:19.447Z,12.90
2018-03-28T21:54:46.937Z,12.53
2018-03-28T21:57:14.441Z,14.53
2018-03-28T21:59:41.956Z,11.13
2018-03-28T22:02:09.477Z,15.13
2018-03-28T22:04:38.703Z,14.30
2018-03-28T22:07:06.557Z,16.20
2018-03-28T22:09:34.076Z,15.03
2018-03-28T22:12:01.627Z,18.50
2018-03-28T22:14:29.138Z,17.07
2018-03-28T22:16:56.690Z,19.50
2018-03-28T22:19:24.247Z,18.90
2018-03-28T22:21:51.823Z,17.53
2018-03-28T22:24:19.386Z,15.00
2018-03-28T22:26:46.987Z,15.67
2018-03-28T22:29:15.285Z,15.23
2018-03-28T22:31:42.831Z,17.57
2018-03-28T22:34:10.339Z,18.37
2018-03-28T22:36:37.839Z,20.80
2018-03-28T22:39:05.339Z,19.57
2018-03-28T22:41:32.988Z,17.93
2018-03-28T22:44:00.478Z,18.37
2018-03-28T22:46:27.940Z,13.77
2018-03-28T22:48:55.409Z,13.60
2018-03-28T22:51:23.629Z,15.63
2018-03-28T22:53:51.084Z,16.60
2018-03-28T22:56:18.564Z,18.73
2018-03-28T22:58:46.021Z,13.90
2018-03-28T23:01:13.510Z,17.33
2018-03-28T23:03:40.973Z,14.90
2018-03-28T23:06:09.223Z,13.13
2018-03-28T23:08:36.673Z,15.17
2018-03-28T23:11:04.123Z,9.97
2018-03-28T23:13:31.565Z,9.90
2018-03-28T23:15:59.013Z,10.37
2018-03-28T23:18:26.465Z,10.03
2018-03-28T23:20:53.928Z,9.17
2018-03-28T23:23:21.385Z,9.17
2018-03-28T23:25:48.851Z,8.37
2018-03-28T23:28:16.328Z,8.53
2018-03-28T23:30:43.795Z,8.63
2018-03-28T23:33:11.241Z,8.10
2018-03-28T23:35:38.716Z,10.47
2018-03-28T23:38:06.932Z,8.03
2018-03-28T23:40:34.379Z,10.83
2018-03-28T23:43:01.837Z,10.10
2018-03-28T23:45:29.316Z,9.87
2018-03-28T23:47:56.829Z,8.97
2018-03-28T23:50:24.334Z,10.23
2018-03-28T23:52:51.783Z,10.10
2018-03-28T23:55:19.228Z,10.53
2018-03-28T23:57:46.701Z,10.10
